createdAt,value
2022-11-08T00:01:35.837Z,3.40
2022-11-08T00:06:56.132Z,4.00
2022-11-08T00:12:16.270Z,6.00
2022-11-08T00:17:20.512Z,4.00
2022-11-08T00:22:23.407Z,3.00
2022-11-08T00:27:26.290Z,4.00
2022-11-08T00:32:30.452Z,4.00
2022-11-08T00:37:33.047Z,4.00
2022-11-08T00:42:36.005Z,4.00
2022-11-08T00:47:39.987Z,4.00
2022-11-08T00:52:42.981Z,3.00
2022-11-08T00:58:00.956Z,3.20
2022-11-08T01:03:20.208Z,4.00
2022-11-08T01:08:23.534Z,5.20
2022-11-08T01:13:26.193Z,4.00
2022-11-08T01:18:32.952Z,4.00
2022-11-08T01:23:35.649Z,4.00
2022-11-08T01:28:38.246Z,3.80
2022-11-08T01:33:47.008Z,4.00
2022-11-08T01:38:52.751Z,4.00
2022-11-08T01:43:55.750Z,4.00
2022-11-08T01:49:01.993Z,4.00
2022-11-08T01:54:05.314Z,4.80
2022-11-08T01:59:09.000Z,4.40
2022-11-08T02:04:13.377Z,4.40
2022-11-08T02:09:16.323Z,4.00
2022-11-08T02:14:19.037Z,6.00
2022-11-08T02:19:27.087Z,4.00
2022-11-08T02:24:31.040Z,4.00
2022-11-08T02:29:34.323Z,5.20
2022-11-08T02:34:39.012Z,6.00
2022-11-08T02:39:44.196Z,5.60
2022-11-08T02:44:47.037Z,5.60
2022-11-08T02:49:49.673Z,3.00
2022-11-08T02:54:53.905Z,4.80
2022-11-08T02:59:56.732Z,5.60
2022-11-08T03:04:59.405Z,4.00
2022-11-08T03:10:04.281Z,4.00
2022-11-08T03:15:08.091Z,4.00
2022-11-08T03:20:11.891Z,4.00
2022-11-08T03:25:18.466Z,4.00
2022-11-08T03:30:21.268Z,4.00
2022-11-08T03:35:24.305Z,3.00
2022-11-08T03:40:28.959Z,3.00
2022-11-08T03:45:31.582Z,4.00
2022-11-08T03:50:34.227Z,4.00
2022-11-08T03:55:38.198Z,4.00
2022-11-08T04:00:40.862Z,2.40
2022-11-08T04:05:43.701Z,3.40
2022-11-08T04:10:48.144Z,4.80
2022-11-08T04:15:53.314Z,3.60
2022-11-08T04:21:13.406Z,3.60
2022-11-08T04:26:17.437Z,3.60
2022-11-08T04:31:20.638Z,4.00
2022-11-08T04:36:23.374Z,3.40
2022-11-08T04:41:27.772Z,3.00
2022-11-08T04:46:30.497Z,4.00
2022-11-08T04:51:33.764Z,4.00
2022-11-08T04:56:41.634Z,5.00
2022-11-08T05:01:44.576Z,5.00
2022-11-08T05:06:47.245Z,6.00
2022-11-08T05:11:51.405Z,4.00
2022-11-08T05:16:54.198Z,3.20
2022-11-08T05:22:14.414Z,3.00
2022-11-08T05:27:18.332Z,3.60
2022-11-08T05:32:20.955Z,5.00
2022-11-08T05:37:23.741Z,3.00
2022-11-08T05:42:27.879Z,3.40
2022-11-08T05:47:30.513Z,4.00
2022-11-08T05:52:33.314Z,3.20
2022-11-08T05:57:37.300Z,4.00
2022-11-08T06:02:40.169Z,4.80
2022-11-08T06:07:42.832Z,4.20
2022-11-08T06:12:46.899Z,4.00
2022-11-08T06:17:49.523Z,3.00
2022-11-08T06:22:52.146Z,3.60
2022-11-08T06:27:56.859Z,4.80
2022-11-08T06:33:00.335Z,2.80
2022-11-08T06:38:06.910Z,4.80
2022-11-08T06:43:18.180Z,3.00
2022-11-08T06:48:22.475Z,3.00
2022-11-08T06:53:25.101Z,3.00
2022-11-08T06:58:30.252Z,3.80
2022-11-08T07:03:33.020Z,4.20
2022-11-08T07:08:36.340Z,3.00
2022-11-08T07:13:40.775Z,4.60
2022-11-08T07:18:43.677Z,3.00
2022-11-08T07:23:46.415Z,3.00
2022-11-08T07:28:50.400Z,3.00
2022-11-08T07:33:53.250Z,3.00
2022-11-08T07:38:56.128Z,3.00
2022-11-08T07:44:00.285Z,2.40
2022-11-08T07:49:02.916Z,5.20
2022-11-08T07:54:05.521Z,3.00
2022-11-08T07:59:09.495Z,3.00
2022-11-08T08:04:12.546Z,5.00
2022-11-08T08:09:15.305Z,4.60
2022-11-08T08:14:19.646Z,4.20
2022-11-08T08:19:22.367Z,3.00
2022-11-08T08:24:26.531Z,3.80
2022-11-08T08:29:30.552Z,6.00
2022-11-08T08:34:33.171Z,5.00
2022-11-08T08:39:35.810Z,3.00
2022-11-08T08:44:39.942Z,3.60
2022-11-08T08:49:42.666Z,3.40
2022-11-08T08:54:45.279Z,3.00
2022-11-08T09:05:12.503Z,5.00
2022-11-08T09:10:16.135Z,2.60
2022-11-08T09:15:20.475Z,3.40
2022-11-08T09:20:23.171Z,3.00
2022-11-08T09:25:25.870Z,5.00
2022-11-08T09:30:29.796Z,3.00
2022-11-08T09:35:32.459Z,3.00
2022-11-08T09:40:39.612Z,3.00
2022-11-08T09:45:45.466Z,3.00
2022-11-08T09:50:48.266Z,3.00
2022-11-08T09:55:52.277Z,3.80
2022-11-08T10:00:56.255Z,2.80
2022-11-08T10:06:10.130Z,3.00
2022-11-08T10:11:25.234Z,3.00
2022-11-08T10:16:31.186Z,3.00
2022-11-08T10:21:43.849Z,2.60
2022-11-08T10:26:46.724Z,3.00
2022-11-08T10:31:53.454Z,2.00
2022-11-08T10:37:00.130Z,4.20
2022-11-08T10:42:05.473Z,2.80
2022-11-08T10:47:12.862Z,3.00
2022-11-08T10:52:18.797Z,3.00
2022-11-08T10:57:24.985Z,3.00
2022-11-08T11:02:30.316Z,3.40
2022-11-08T11:07:33.968Z,2.40
2022-11-08T11:12:36.693Z,3.00
2022-11-08T11:17:40.722Z,2.20
2022-11-08T11:22:45.475Z,2.00
2022-11-08T11:27:50.408Z,3.00
2022-11-08T11:33:05.686Z,2.00
2022-11-08T11:38:12.112Z,3.00
2022-11-08T11:43:19.703Z,3.00
2022-11-08T11:48:26.257Z,2.00
2022-11-08T11:53:32.799Z,2.20
2022-11-08T11:58:46.787Z,2.60
2022-11-08T12:04:09.547Z,2.00
2022-11-08T12:09:22.160Z,3.00
2022-11-08T12:14:36.920Z,3.00
2022-11-08T12:19:42.531Z,2.00
2022-11-08T12:24:48.927Z,3.00
2022-11-08T12:29:54.244Z,2.60
2022-11-08T12:35:13.561Z,3.80
2022-11-08T12:40:20.208Z,3.40
2022-11-08T12:45:27.385Z,8.20
2022-11-08T12:50:34.601Z,12.00
2022-11-08T12:55:37.907Z,13.00
2022-11-08T13:00:40.636Z,14.20
2022-11-08T13:05:45.901Z,16.40
2022-11-08T13:10:51.254Z,20.80
2022-11-08T13:16:14.507Z,22.00
2022-11-08T13:21:37.939Z,18.00
2022-11-08T13:26:42.507Z,16.20
2022-11-08T13:31:49.285Z,12.80
2022-11-08T13:37:02.857Z,13.20
2022-11-08T13:42:09.188Z,11.00
2022-11-08T13:47:43.820Z,10.60
2022-11-08T13:52:48.604Z,12.00
2022-11-08T13:57:59.247Z,11.80
2022-11-08T14:03:01.944Z,11.80
2022-11-08T14:08:22.309Z,10.80
2022-11-08T14:13:26.212Z,11.80
2022-11-08T14:18:30.092Z,8.60
2022-11-08T14:23:35.224Z,10.20
2022-11-08T14:28:39.307Z,7.20
2022-11-08T14:33:42.547Z,6.00
2022-11-08T14:38:48.625Z,7.60
2022-11-08T14:43:51.271Z,7.20
2022-11-08T14:48:55.038Z,7.40
2022-11-08T14:53:58.993Z,7.60
2022-11-08T14:59:05.765Z,8.00
2022-11-08T15:04:16.530Z,7.60
2022-11-08T15:09:23.120Z,7.60
2022-11-08T15:14:26.976Z,7.00
2022-11-08T15:19:31.073Z,6.60
2022-11-08T15:24:38.722Z,6.20
2022-11-08T15:29:52.392Z,7.00
2022-11-08T15:34:55.717Z,6.80
2022-11-08T15:40:01.949Z,6.00
2022-11-08T15:45:05.949Z,5.00
2022-11-08T15:50:19.126Z,6.00
2022-11-08T15:55:24.658Z,6.20
2022-11-08T16:00:28.383Z,7.80
2022-11-08T16:05:32.347Z,6.00
2022-11-08T16:10:39.156Z,5.80
2022-11-08T16:15:41.783Z,6.00
2022-11-08T16:20:44.623Z,6.40
2022-11-08T16:25:49.393Z,6.00
2022-11-08T16:30:52.105Z,5.80
2022-11-08T16:35:55.160Z,5.60
2022-11-08T16:40:59.356Z,6.40
2022-11-08T16:46:06.754Z,5.00
2022-11-08T16:51:14.899Z,6.20
2022-11-08T16:56:18.972Z,6.40
2022-11-08T17:01:23.119Z,6.00
2022-11-08T17:06:26.006Z,6.00
2022-11-08T17:11:30.253Z,6.00
2022-11-08T17:16:32.993Z,5.60
2022-11-08T17:21:44.581Z,6.60
2022-11-08T17:26:49.319Z,6.00
2022-11-08T17:31:52.087Z,6.00
2022-11-08T17:36:54.741Z,6.60
2022-11-08T17:41:58.797Z,7.00
2022-11-08T17:47:01.467Z,7.80
2022-11-08T17:52:04.103Z,7.00
2022-11-08T17:57:08.539Z,8.00
2022-11-08T18:02:11.729Z,9.00
2022-11-08T18:07:14.467Z,8.80
2022-11-08T18:12:18.553Z,8.60
2022-11-08T18:17:22.298Z,8.20
2022-11-08T18:22:26.671Z,8.80
2022-11-08T18:27:30.680Z,8.00
2022-11-08T18:32:33.453Z,8.60
2022-11-08T18:37:36.464Z,8.40
2022-11-08T18:42:44.136Z,7.40
2022-11-08T18:47:47.519Z,8.00
2022-11-08T18:52:50.130Z,7.60
2022-11-08T18:57:54.251Z,8.00
2022-11-08T19:02:56.895Z,7.60
2022-11-08T19:07:59.571Z,7.40
2022-11-08T19:13:03.635Z,7.20
2022-11-08T19:18:06.356Z,6.00
2022-11-08T19:23:09.004Z,5.60
2022-11-08T19:28:13.015Z,7.00
2022-11-08T19:33:15.817Z,7.80
2022-11-08T19:38:18.731Z,6.60
2022-11-08T19:43:23.004Z,7.80
2022-11-08T19:48:25.621Z,7.00
2022-11-08T19:53:28.265Z,6.00
2022-11-08T19:58:32.842Z,6.20
2022-11-08T20:03:35.569Z,7.00
2022-11-08T20:08:38.312Z,7.00
2022-11-08T20:13:42.366Z,6.20
2022-11-08T20:18:45.015Z,7.60
2022-11-08T20:23:47.732Z,7.00
2022-11-08T20:28:56.177Z,4.00
2022-11-08T20:34:00.727Z,5.20
2022-11-08T20:39:06.915Z,6.00
2022-11-08T20:44:11.330Z,6.00
2022-11-08T20:49:13.963Z,5.20
2022-11-08T20:54:16.971Z,5.60
2022-11-08T20:59:20.911Z,6.00
2022-11-08T21:04:23.531Z,7.00
2022-11-08T21:09:46.132Z,6.00
2022-11-08T21:14:50.167Z,5.20
2022-11-08T21:19:52.789Z,4.00
2022-11-08T21:24:55.482Z,5.20
2022-11-08T21:29:59.715Z,4.00
2022-11-08T21:35:02.775Z,3.80
2022-11-08T21:40:06.252Z,5.20
2022-11-08T21:45:11.111Z,4.80
2022-11-08T21:50:13.721Z,3.80
2022-11-08T21:55:16.455Z,3.00
2022-11-08T22:00:20.900Z,4.80
2022-11-08T22:05:23.849Z,5.00
2022-11-08T22:10:26.655Z,4.00
2022-11-08T22:15:30.601Z,3.20
2022-11-08T22:20:33.226Z,3.80
2022-11-08T22:25:35.815Z,6.00
2022-11-08T22:30:39.781Z,4.00
2022-11-08T22:35:42.359Z,3.60
2022-11-08T22:40:45.526Z,3.60
2022-11-08T22:45:49.667Z,4.00
2022-11-08T22:50:52.387Z,4.00
2022-11-08T22:55:55.023Z,4.00
2022-11-08T23:00:59.109Z,3.40
2022-11-08T23:06:01.712Z,4.00
2022-11-08T23:11:21.989Z,3.40
2022-11-08T23:16:38.214Z,3.00
2022-11-08T23:21:58.498Z,3.00
2022-11-08T23:27:18.663Z,5.20
2022-11-08T23:32:22.610Z,4.40
2022-11-08T23:37:25.313Z,3.00
2022-11-08T23:42:45.563Z,4.00
2022-11-08T23:47:49.585Z,3.00
2022-11-08T23:52:52.402Z,4.00
2022-11-08T23:57:55.073Z,3.20
